createdAt,value
2019-05-23T00:02:13.606Z,7.17
2019-05-23T00:04:47.413Z,7.53
2019-05-23T00:07:18.561Z,6.63
2019-05-23T00:09:47.269Z,7.70
2019-05-23T00:12:33.185Z,6.70
2019-05-23T00:15:09.068Z,8.07
2019-05-23T00:17:38.478Z,7.77
2019-05-23T00:20:06.919Z,7.33
2019-05-23T00:22:35.138Z,7.00
2019-05-23T00:25:05.331Z,6.87
2019-05-23T00:27:33.701Z,8.03
2019-05-23T00:30:03.579Z,9.03
2019-05-23T00:32:45.643Z,7.57
2019-05-23T00:35:14.549Z,8.37
2019-05-23T00:37:43.742Z,10.23
2019-05-23T00:40:15.281Z,9.93
2019-05-23T00:42:44.788Z,7.17
2019-05-23T00:45:13.658Z,7.47
2019-05-23T00:47:41.723Z,8.43
2019-05-23T00:50:10.310Z,8.10
2019-05-23T00:52:38.209Z,8.83
2019-05-23T00:55:07.805Z,12.70
2019-05-23T00:57:36.868Z,7.07
2019-05-23T01:00:06.334Z,6.63
2019-05-23T01:02:34.217Z,6.53
2019-05-23T01:05:02.339Z,6.97
2019-05-23T01:07:30.481Z,7.20
2019-05-23T01:10:00.014Z,8.43
2019-05-23T01:12:30.210Z,7.83
2019-05-23T01:14:58.440Z,6.57
2019-05-23T01:17:28.239Z,9.30
2019-05-23T01:19:56.772Z,7.87
2019-05-23T01:22:25.082Z,9.13
2019-05-23T01:24:54.874Z,8.07
2019-05-23T01:27:23.547Z,6.13
2019-05-23T01:29:51.901Z,7.83
2019-05-23T01:32:25.049Z,7.53
2019-05-23T01:34:53.185Z,9.53
2019-05-23T01:37:21.445Z,6.47
2019-05-23T01:39:49.653Z,7.17
2019-05-23T01:42:19.234Z,8.33
2019-05-23T01:44:48.013Z,8.30
2019-05-23T01:47:17.102Z,7.97
2019-05-23T01:49:46.192Z,8.13
2019-05-23T01:52:14.493Z,8.83
2019-05-23T01:54:43.532Z,7.33
2019-05-23T01:57:11.534Z,8.47
2019-05-23T01:59:39.831Z,8.27
2019-05-23T02:02:10.335Z,7.67
2019-05-23T02:04:38.532Z,7.50
2019-05-23T02:07:06.850Z,8.17
2019-05-23T02:09:34.950Z,7.43
2019-05-23T02:12:08.074Z,7.27
2019-05-23T02:14:37.833Z,7.37
2019-05-23T02:17:06.876Z,7.80
2019-05-23T02:19:35.205Z,9.43
2019-05-23T02:22:04.006Z,8.53
2019-05-23T02:24:32.233Z,10.00
2019-05-23T02:27:01.164Z,8.33
2019-05-23T02:29:29.898Z,9.00
2019-05-23T02:31:58.679Z,9.63
2019-05-23T02:34:28.131Z,13.83
2019-05-23T02:36:58.129Z,13.00
2019-05-23T02:39:51.802Z,10.87
2019-05-23T02:42:27.100Z,13.37
2019-05-23T02:44:56.324Z,13.47
2019-05-23T02:47:33.257Z,10.60
2019-05-23T02:50:02.104Z,13.13
2019-05-23T02:52:39.796Z,12.80
2019-05-23T02:55:16.824Z,13.53
2019-05-23T02:57:47.047Z,18.13
2019-05-23T03:00:54.624Z,15.40
2019-05-23T03:03:29.819Z,18.53
2019-05-23T03:06:00.120Z,17.60
2019-05-23T03:08:30.910Z,17.63
2019-05-23T03:11:27.797Z,17.43
2019-05-23T03:13:59.265Z,18.63
2019-05-23T03:16:30.218Z,19.83
2019-05-23T03:19:02.802Z,19.33
2019-05-23T03:21:31.423Z,16.97
2019-05-23T03:24:01.263Z,17.00
2019-05-23T03:27:04.661Z,16.97
2019-05-23T03:29:33.991Z,16.30
2019-05-23T03:32:22.091Z,17.87
2019-05-23T03:34:55.785Z,16.00
2019-05-23T03:37:24.623Z,16.90
2019-05-23T03:39:53.635Z,16.43
2019-05-23T03:42:21.948Z,16.63
2019-05-23T03:44:51.105Z,15.67
2019-05-23T03:47:20.248Z,18.77
2019-05-23T03:49:48.922Z,19.83
2019-05-23T03:52:18.604Z,20.50
2019-05-23T03:54:48.788Z,21.70
2019-05-23T03:57:18.921Z,21.57
2019-05-23T03:59:46.767Z,20.77
2019-05-23T04:02:17.739Z,21.00
2019-05-23T04:04:45.807Z,22.27
2019-05-23T04:07:14.621Z,23.53
2019-05-23T04:09:43.197Z,22.63
2019-05-23T04:12:11.796Z,23.10
2019-05-23T04:14:39.912Z,24.97
2019-05-23T04:17:08.585Z,22.67
2019-05-23T04:19:37.009Z,26.70
2019-05-23T04:22:06.935Z,25.67
2019-05-23T04:24:34.954Z,22.77
2019-05-23T04:27:03.798Z,23.53
2019-05-23T04:29:31.920Z,24.00
2019-05-23T04:32:08.176Z,20.67
2019-05-23T04:34:30.138Z,21.40
2019-05-23T04:36:58.199Z,18.87
2019-05-23T04:39:26.715Z,19.30
2019-05-23T04:41:55.195Z,19.60
2019-05-23T04:44:23.336Z,19.60
2019-05-23T04:46:51.368Z,21.73
2019-05-23T04:49:19.688Z,22.27
2019-05-23T04:51:48.031Z,22.57
2019-05-23T04:54:16.266Z,28.03
2019-05-23T04:56:45.382Z,31.20
2019-05-23T04:59:14.551Z,29.13
2019-05-23T05:01:42.441Z,23.10
2019-05-23T05:04:10.354Z,25.03
2019-05-23T05:06:38.458Z,24.60
2019-05-23T05:09:08.353Z,20.60
2019-05-23T05:11:36.415Z,22.27
2019-05-23T05:14:05.683Z,22.10
2019-05-23T05:16:33.760Z,21.43
2019-05-23T05:19:02.070Z,21.10
2019-05-23T05:21:30.078Z,23.97
2019-05-23T05:23:58.375Z,24.47
2019-05-23T05:26:26.750Z,20.40
2019-05-23T05:28:55.257Z,19.90
2019-05-23T05:31:23.202Z,19.77
2019-05-23T05:33:51.106Z,23.83
2019-05-23T05:36:18.991Z,21.57
2019-05-23T05:38:47.555Z,24.03
2019-05-23T05:41:15.715Z,20.23
2019-05-23T05:43:43.803Z,20.97
2019-05-23T05:46:11.755Z,20.47
2019-05-23T05:48:40.476Z,21.03
2019-05-23T05:51:08.911Z,24.77
2019-05-23T05:53:36.779Z,20.00
2019-05-23T05:56:05.026Z,24.00
2019-05-23T05:58:33.126Z,23.37
2019-05-23T06:01:03.565Z,19.97
2019-05-23T06:03:31.671Z,19.27
2019-05-23T06:06:17.099Z,21.13
2019-05-23T06:08:46.270Z,21.23
2019-05-23T06:11:23.624Z,26.53
2019-05-23T06:13:51.833Z,22.23
2019-05-23T06:16:20.018Z,27.00
2019-05-23T06:18:48.022Z,25.50
2019-05-23T06:21:18.486Z,22.23
2019-05-23T06:23:47.242Z,27.03
2019-05-23T06:26:15.531Z,30.17
2019-05-23T06:28:44.197Z,25.53
2019-05-23T06:31:13.611Z,28.50
2019-05-23T06:33:41.986Z,21.83
2019-05-23T06:36:11.653Z,21.80
2019-05-23T06:38:40.536Z,24.10
2019-05-23T06:41:09.082Z,21.97
2019-05-23T06:43:37.716Z,22.13
2019-05-23T06:46:06.635Z,22.73
2019-05-23T06:48:35.077Z,22.90
2019-05-23T06:51:03.086Z,23.20
2019-05-23T06:53:31.068Z,22.77
2019-05-23T06:55:59.072Z,22.40
2019-05-23T06:58:27.808Z,21.47
2019-05-23T07:00:56.114Z,21.10
2019-05-23T07:03:40.724Z,25.77
2019-05-23T07:05:55.897Z,21.13
2019-05-23T07:08:27.628Z,22.83
2019-05-23T07:10:55.599Z,19.57
2019-05-23T07:13:25.897Z,24.30
2019-05-23T07:15:53.981Z,24.80
2019-05-23T07:18:22.060Z,21.27
2019-05-23T07:20:49.928Z,18.63
2019-05-23T07:23:18.357Z,19.30
2019-05-23T07:25:46.566Z,20.93
2019-05-23T07:28:15.113Z,19.33
2019-05-23T07:30:43.960Z,20.27
2019-05-23T07:33:13.309Z,23.03
2019-05-23T07:35:41.574Z,21.73
2019-05-23T07:38:09.608Z,19.83
2019-05-23T07:40:37.712Z,17.83
2019-05-23T07:43:07.050Z,18.87
2019-05-23T07:45:41.149Z,17.83
2019-05-23T07:48:09.950Z,20.63
2019-05-23T07:50:37.911Z,18.03
2019-05-23T07:53:06.177Z,20.23
2019-05-23T07:55:39.152Z,19.60
2019-05-23T07:58:08.849Z,24.23
2019-05-23T08:00:40.940Z,22.50
2019-05-23T08:03:09.446Z,19.33
2019-05-23T08:05:37.724Z,19.00
2019-05-23T08:08:06.557Z,23.00
2019-05-23T08:10:34.949Z,19.40
2019-05-23T08:13:03.609Z,20.90
2019-05-23T08:15:32.581Z,19.00
2019-05-23T08:18:00.637Z,17.67
2019-05-23T08:20:28.930Z,19.27
2019-05-23T08:22:57.462Z,18.83
2019-05-23T08:25:26.063Z,14.83
2019-05-23T08:27:54.102Z,14.50
2019-05-23T08:30:23.144Z,17.20
2019-05-23T08:32:51.473Z,16.77
2019-05-23T08:35:19.760Z,16.13
2019-05-23T08:37:47.918Z,15.93
2019-05-23T08:40:16.489Z,14.33
2019-05-23T08:42:45.069Z,14.27
2019-05-23T08:45:14.911Z,14.90
2019-05-23T08:47:43.678Z,14.60
2019-05-23T08:50:12.378Z,15.23
2019-05-23T08:52:40.252Z,16.27
2019-05-23T08:55:19.005Z,15.57
2019-05-23T08:57:47.963Z,15.17
2019-05-23T09:00:17.737Z,16.93
2019-05-23T09:02:47.667Z,14.53
2019-05-23T09:05:17.347Z,12.50
2019-05-23T09:07:45.712Z,17.93
2019-05-23T09:10:13.927Z,17.23
2019-05-23T09:12:42.194Z,13.30
2019-05-23T09:15:39.817Z,13.43
2019-05-23T09:18:08.780Z,17.33
2019-05-23T09:20:37.431Z,17.73
2019-05-23T09:23:05.422Z,20.00
2019-05-23T09:25:33.599Z,20.20
2019-05-23T09:28:02.324Z,16.13
2019-05-23T09:30:30.857Z,17.90
2019-05-23T09:32:59.139Z,18.40
2019-05-23T09:35:27.612Z,15.93
2019-05-23T09:37:55.616Z,20.17
2019-05-23T09:40:23.703Z,19.67
2019-05-23T09:42:51.753Z,15.07
2019-05-23T09:45:20.514Z,13.13
2019-05-23T09:47:50.928Z,17.10
2019-05-23T09:50:19.779Z,14.73
2019-05-23T09:52:47.702Z,15.30
2019-05-23T09:55:15.803Z,12.73
2019-05-23T09:57:43.808Z,14.47
2019-05-23T10:00:14.783Z,10.53
2019-05-23T10:02:42.723Z,11.90
2019-05-23T10:05:11.993Z,12.50
2019-05-23T10:07:40.122Z,13.23
2019-05-23T10:10:08.862Z,13.03
2019-05-23T10:12:36.776Z,11.10
2019-05-23T10:15:50.825Z,9.97
2019-05-23T10:18:20.267Z,11.63
2019-05-23T10:20:48.572Z,9.87
2019-05-23T10:23:16.790Z,8.97
2019-05-23T10:25:45.257Z,7.27
2019-05-23T10:28:14.123Z,6.67
2019-05-23T10:30:42.385Z,10.90
2019-05-23T10:33:12.812Z,8.37
2019-05-23T10:35:56.953Z,7.17
2019-05-23T10:38:10.809Z,8.93
2019-05-23T10:40:39.327Z,8.37
2019-05-23T10:43:08.404Z,11.37
2019-05-23T10:45:36.560Z,9.80
2019-05-23T10:48:05.042Z,10.97
2019-05-23T10:50:44.170Z,11.60
2019-05-23T10:53:03.079Z,10.60
2019-05-23T10:55:31.067Z,11.07
2019-05-23T10:57:59.083Z,13.00
2019-05-23T11:00:28.364Z,13.23
2019-05-23T11:02:56.599Z,12.10
2019-05-23T11:05:25.699Z,10.23
2019-05-23T11:07:54.079Z,11.17
2019-05-23T11:10:22.682Z,10.77
2019-05-23T11:12:50.851Z,10.47
2019-05-23T11:15:57.375Z,9.50
2019-05-23T11:18:24.684Z,10.60
2019-05-23T11:20:52.738Z,12.30
2019-05-23T11:23:25.289Z,9.77
2019-05-23T11:25:53.797Z,9.10
2019-05-23T11:28:21.844Z,8.27
2019-05-23T11:30:53.467Z,9.43
2019-05-23T11:33:22.290Z,8.73
2019-05-23T11:35:50.685Z,9.03
2019-05-23T11:38:19.416Z,8.87
2019-05-23T11:40:47.540Z,7.67
2019-05-23T11:43:15.755Z,8.90
2019-05-23T11:45:46.768Z,8.77
2019-05-23T11:48:16.260Z,12.20
2019-05-23T11:50:44.688Z,10.70
2019-05-23T11:53:12.795Z,10.60
2019-05-23T11:55:40.609Z,11.43
2019-05-23T11:58:08.984Z,10.43
2019-05-23T12:01:33.849Z,9.10
2019-05-23T12:04:12.166Z,9.43
2019-05-23T12:06:59.034Z,10.07
2019-05-23T12:09:27.268Z,10.53
2019-05-23T12:11:55.770Z,9.10
2019-05-23T12:14:57.302Z,11.27
2019-05-23T12:17:26.628Z,9.97
2019-05-23T12:19:54.585Z,9.23
2019-05-23T12:22:23.024Z,10.57
2019-05-23T12:24:51.115Z,10.73
2019-05-23T12:27:19.037Z,11.17
2019-05-23T12:29:47.231Z,8.13
2019-05-23T12:32:27.211Z,6.70
2019-05-23T12:35:09.269Z,8.03
2019-05-23T12:37:24.999Z,7.23
2019-05-23T12:39:53.780Z,6.30
2019-05-23T12:42:21.795Z,7.30
2019-05-23T12:44:50.154Z,8.03
2019-05-23T12:47:41.447Z,8.80
2019-05-23T12:50:13.264Z,4.90
2019-05-23T12:52:42.697Z,7.67
2019-05-23T12:55:10.838Z,6.90
2019-05-23T12:57:40.068Z,6.13
2019-05-23T13:00:14.994Z,6.07
2019-05-23T13:02:43.136Z,5.00
2019-05-23T13:05:11.865Z,4.03
2019-05-23T13:07:39.925Z,5.10
2019-05-23T13:10:08.618Z,4.80
2019-05-23T13:12:36.664Z,4.70
2019-05-23T13:15:38.154Z,3.93
2019-05-23T13:18:05.510Z,5.83
2019-05-23T13:20:33.723Z,7.00
2019-05-23T13:23:01.941Z,6.17
2019-05-23T13:25:30.274Z,5.60
2019-05-23T13:27:58.985Z,5.70
2019-05-23T13:30:27.376Z,5.60
2019-05-23T13:32:55.323Z,6.80
2019-05-23T13:35:23.306Z,6.80
2019-05-23T13:37:54.144Z,6.90
2019-05-23T13:40:21.229Z,5.53
2019-05-23T13:42:49.225Z,7.30
2019-05-23T13:45:18.434Z,5.20
2019-05-23T13:47:46.810Z,7.47
2019-05-23T13:50:15.401Z,5.97
2019-05-23T13:52:43.370Z,5.27
2019-05-23T13:55:12.755Z,5.40
2019-05-23T13:57:40.621Z,7.47
2019-05-23T14:00:09.706Z,4.63
2019-05-23T14:02:37.954Z,6.67
2019-05-23T14:05:06.298Z,4.83
2019-05-23T14:07:34.574Z,5.43
2019-05-23T14:10:04.155Z,6.00
2019-05-23T14:12:32.323Z,6.23
2019-05-23T14:15:26.306Z,8.10
2019-05-23T14:17:53.817Z,5.03
2019-05-23T14:20:22.803Z,6.00
2019-05-23T14:22:58.719Z,6.77
2019-05-23T14:25:26.968Z,6.33
2019-05-23T14:28:06.359Z,6.40
2019-05-23T14:30:59.624Z,5.00
2019-05-23T14:33:34.765Z,5.67
2019-05-23T14:36:03.692Z,5.50
2019-05-23T14:38:33.760Z,5.90
2019-05-23T14:41:01.900Z,6.37
2019-05-23T14:43:30.033Z,6.97
2019-05-23T14:46:06.454Z,4.57
2019-05-23T14:48:47.010Z,7.87
2019-05-23T14:51:43.133Z,6.80
2019-05-23T14:54:23.211Z,4.73
2019-05-23T14:56:51.399Z,8.23
2019-05-23T14:59:19.868Z,5.60
2019-05-23T15:01:48.174Z,6.57
2019-05-23T15:04:16.360Z,4.50
2019-05-23T15:06:44.898Z,6.90
2019-05-23T15:09:12.934Z,4.97
2019-05-23T15:11:41.278Z,6.73
2019-05-23T15:14:09.219Z,6.93
2019-05-23T15:17:02.118Z,6.97
2019-05-23T15:19:41.831Z,10.30
2019-05-23T15:22:00.140Z,7.00
2019-05-23T15:24:28.531Z,7.17
2019-05-23T15:26:56.535Z,6.83
2019-05-23T15:29:28.819Z,5.97
2019-05-23T15:32:02.196Z,6.47
2019-05-23T15:34:24.788Z,6.63
2019-05-23T15:36:52.864Z,7.13
2019-05-23T15:39:21.568Z,5.10
2019-05-23T15:41:49.668Z,6.03
2019-05-23T15:44:26.944Z,7.13
2019-05-23T15:46:47.572Z,7.93
2019-05-23T15:49:15.893Z,6.97
2019-05-23T15:51:54.031Z,7.20
2019-05-23T15:54:44.706Z,8.03
2019-05-23T15:57:18.356Z,6.53
2019-05-23T15:59:50.595Z,4.63
2019-05-23T16:02:21.273Z,6.17
2019-05-23T16:04:50.028Z,7.10
2019-05-23T16:07:18.135Z,7.20
2019-05-23T16:09:46.416Z,7.17
2019-05-23T16:12:14.612Z,6.30
2019-05-23T16:15:07.982Z,6.37
2019-05-23T16:18:14.640Z,4.47
2019-05-23T16:21:35.054Z,5.83
2019-05-23T16:24:57.225Z,5.20
2019-05-23T16:28:14.779Z,9.10
2019-05-23T16:31:36.899Z,9.40
2019-05-23T16:35:02.524Z,7.80
2019-05-23T16:37:30.454Z,7.67
2019-05-23T16:39:58.486Z,7.40
2019-05-23T16:42:27.374Z,6.63
2019-05-23T16:44:56.113Z,6.60
2019-05-23T16:47:24.996Z,7.97
2019-05-23T16:49:52.991Z,6.07
2019-05-23T16:52:20.960Z,6.70
2019-05-23T16:54:51.040Z,5.23
2019-05-23T16:57:30.917Z,7.73
2019-05-23T17:00:18.392Z,5.90
2019-05-23T17:03:00.205Z,8.03
2019-05-23T17:05:45.913Z,11.70
2019-05-23T17:08:27.079Z,8.40
2019-05-23T17:11:02.933Z,9.47
2019-05-23T17:13:37.388Z,10.77
2019-05-23T17:16:55.566Z,8.30
2019-05-23T17:19:36.964Z,10.00
2019-05-23T17:22:21.345Z,9.60
2019-05-23T17:24:55.335Z,10.57
2019-05-23T17:27:43.788Z,7.97
2019-05-23T17:30:31.955Z,7.28
2019-05-23T17:33:00.112Z,10.73
2019-05-23T17:35:28.605Z,9.60
2019-05-23T17:37:56.631Z,9.03
2019-05-23T17:40:25.771Z,8.27
2019-05-23T17:42:54.212Z,7.20
2019-05-23T17:45:23.066Z,9.57
2019-05-23T17:47:51.576Z,10.33
2019-05-23T17:50:19.557Z,9.20
2019-05-23T17:52:47.577Z,8.37
2019-05-23T17:55:15.627Z,8.13
2019-05-23T17:57:43.611Z,7.23
2019-05-23T18:00:14.289Z,10.30
2019-05-23T18:02:42.213Z,8.57
2019-05-23T18:05:14.613Z,8.00
2019-05-23T18:07:47.299Z,8.63
2019-05-23T18:10:19.285Z,10.60
2019-05-23T18:12:51.658Z,10.20
2019-05-23T18:16:02.030Z,9.53
2019-05-23T18:18:34.932Z,9.80
2019-05-23T18:21:04.996Z,9.53
2019-05-23T18:23:37.403Z,8.70
2019-05-23T18:26:10.191Z,10.07
2019-05-23T18:28:44.234Z,10.27
2019-05-23T18:31:21.918Z,9.40
2019-05-23T18:33:54.147Z,8.10
2019-05-23T18:36:27.048Z,9.87
2019-05-23T18:38:55.341Z,12.00
2019-05-23T18:41:23.946Z,8.43
2019-05-23T18:43:52.526Z,9.30
2019-05-23T18:46:28.958Z,9.53
2019-05-23T18:48:57.424Z,10.53
2019-05-23T18:51:25.330Z,8.87
2019-05-23T18:53:53.480Z,10.97
2019-05-23T18:56:21.801Z,8.03
2019-05-23T18:58:50.072Z,9.80
2019-05-23T19:01:21.526Z,10.47
2019-05-23T19:03:49.662Z,10.30
2019-05-23T19:06:17.561Z,11.53
2019-05-23T19:08:45.718Z,7.90
2019-05-23T19:11:23.856Z,7.77
2019-05-23T19:13:52.718Z,6.93
2019-05-23T19:17:18.393Z,8.37
2019-05-23T19:19:44.488Z,7.60
2019-05-23T19:22:13.502Z,8.30
2019-05-23T19:24:41.470Z,8.77
2019-05-23T19:27:13.986Z,9.90
2019-05-23T19:29:40.798Z,9.77
2019-05-23T19:32:09.410Z,10.43
2019-05-23T19:34:37.993Z,9.00
2019-05-23T19:37:07.861Z,10.30
2019-05-23T19:39:36.121Z,9.13
2019-05-23T19:42:04.587Z,7.33
2019-05-23T19:44:32.513Z,9.80
2019-05-23T19:47:00.787Z,7.60
2019-05-23T19:49:28.973Z,7.97
2019-05-23T19:51:57.163Z,8.97
2019-05-23T19:54:25.591Z,8.40
2019-05-23T19:56:53.488Z,9.67
2019-05-23T19:59:21.572Z,7.80
2019-05-23T20:02:07.554Z,9.27
2019-05-23T20:04:38.072Z,6.87
2019-05-23T20:07:07.548Z,9.77
2019-05-23T20:09:35.597Z,7.73
2019-05-23T20:12:04.209Z,7.73
2019-05-23T20:14:49.826Z,8.93
2019-05-23T20:17:51.317Z,9.77
2019-05-23T20:20:17.265Z,11.57
2019-05-23T20:22:45.412Z,7.43
2019-05-23T20:25:14.474Z,7.87
2019-05-23T20:28:34.710Z,10.40
2019-05-23T20:31:00.957Z,8.77
2019-05-23T20:33:29.180Z,7.07
2019-05-23T20:35:57.234Z,7.97
2019-05-23T20:38:26.821Z,6.90
2019-05-23T20:40:55.704Z,7.87
2019-05-23T20:43:23.936Z,7.70
2019-05-23T20:45:52.077Z,8.80
2019-05-23T20:48:20.571Z,9.57
2019-05-23T20:50:48.668Z,8.03
2019-05-23T20:53:16.709Z,7.13
2019-05-23T20:55:44.824Z,6.53
2019-05-23T20:58:12.839Z,6.43
2019-05-23T21:00:55.606Z,11.47
2019-05-23T21:03:23.988Z,8.50
2019-05-23T21:05:51.948Z,8.40
2019-05-23T21:08:19.981Z,7.07
2019-05-23T21:10:48.971Z,7.77
2019-05-23T21:13:17.803Z,9.10
2019-05-23T21:16:26.533Z,9.40
2019-05-23T21:18:52.943Z,8.43
2019-05-23T21:21:20.960Z,9.47
2019-05-23T21:23:49.649Z,12.17
2019-05-23T21:26:17.963Z,11.43
2019-05-23T21:28:46.001Z,10.60
2019-05-23T21:31:17.151Z,9.77
2019-05-23T21:33:45.072Z,7.27
2019-05-23T21:36:13.041Z,10.70
2019-05-23T21:38:41.173Z,7.40
2019-05-23T21:41:09.080Z,6.87
2019-05-23T21:43:37.125Z,8.10
2019-05-23T21:46:05.361Z,8.77
2019-05-23T21:48:33.491Z,7.63
2019-05-23T21:51:01.464Z,7.37
2019-05-23T21:53:29.498Z,7.37
2019-05-23T21:55:57.398Z,8.83
2019-05-23T21:58:25.243Z,8.37
2019-05-23T22:01:25.392Z,8.20
2019-05-23T22:04:01.026Z,7.70
2019-05-23T22:06:29.729Z,10.97
2019-05-23T22:08:58.170Z,12.23
2019-05-23T22:11:27.021Z,8.00
2019-05-23T22:13:55.068Z,10.73
2019-05-23T22:16:23.384Z,9.13
2019-05-23T22:18:51.425Z,9.30
2019-05-23T22:21:19.632Z,8.27
2019-05-23T22:23:47.614Z,8.23
2019-05-23T22:26:15.456Z,6.50
2019-05-23T22:28:43.579Z,9.53
2019-05-23T22:31:12.668Z,7.60
2019-05-23T22:33:44.674Z,8.03
2019-05-23T22:36:12.816Z,7.47
2019-05-23T22:38:40.858Z,8.43
2019-05-23T22:41:08.792Z,10.30
2019-05-23T22:43:37.197Z,8.30
2019-05-23T22:46:05.125Z,9.33
2019-05-23T22:48:33.058Z,8.17
2019-05-23T22:51:00.901Z,8.83
2019-05-23T22:53:28.992Z,9.00
2019-05-23T22:55:56.910Z,8.63
2019-05-23T22:58:24.835Z,7.73
2019-05-23T23:00:52.958Z,8.43
2019-05-23T23:03:20.980Z,7.97
2019-05-23T23:05:48.840Z,11.43
2019-05-23T23:08:17.139Z,7.87
2019-05-23T23:10:45.136Z,9.57
2019-05-23T23:13:13.728Z,6.93
2019-05-23T23:15:41.906Z,10.00
2019-05-23T23:18:09.828Z,6.53
2019-05-23T23:20:37.744Z,8.50
2019-05-23T23:23:05.611Z,8.53
2019-05-23T23:25:33.666Z,7.20
2019-05-23T23:28:01.746Z,9.13
2019-05-23T23:30:33.243Z,10.87
2019-05-23T23:33:01.292Z,8.70
2019-05-23T23:35:29.193Z,10.43
2019-05-23T23:37:57.094Z,7.73
2019-05-23T23:40:25.239Z,7.73
2019-05-23T23:42:53.096Z,10.37
2019-05-23T23:45:39.104Z,9.07
2019-05-23T23:48:25.463Z,8.20
2019-05-23T23:51:11.497Z,10.03
2019-05-23T23:53:57.337Z,7.03
2019-05-23T23:56:43.081Z,7.37
2019-05-23T23:59:10.756Z,10.87
